Time;durP1;ratioP1;P1;durP2;ratioP2;P2;SDS_P1;SDS_P2;PMS_P1;PMS_P2;Temp;Humidity;BMP_temperature;BMP_pressure;BME280_temperature;BME280_humidity;BME280_pressure;Samples;Min_cycle;Max_cycle;Signal;HPM_P1;HPM_P2
2022/09/18 00:01:49;;;;;;;8.85;1.80;;;12.00;99.90;;;;;;5073534;28;20044;-61
2022/09/18 00:04:14;;;;;;;8.27;2.10;;;12.00;99.90;;;;;;5057412;28;20403;-60
2022/09/18 00:06:42;;;;;;;8.52;2.30;;;12.00;99.90;;;;;;5072854;28;20449;-61
2022/09/18 00:09:11;;;;;;;9.63;1.92;;;12.00;99.90;;;;;;5091380;28;20037;-60
2022/09/18 00:11:44;;;;;;;7.15;2.40;;;12.00;99.90;;;;;;5073999;28;20130;-60
2022/09/18 00:14:13;;;;;;;10.02;2.08;;;12.10;99.90;;;;;;5072990;28;20485;-61
2022/09/18 00:16:39;;;;;;;11.95;2.40;;;12.10;99.90;;;;;;5095565;28;20499;-61
2022/09/18 00:19:05;;;;;;;6.18;1.92;;;12.10;99.90;;;;;;5095327;28;20048;-61
2022/09/18 00:21:34;;;;;;;13.75;2.53;;;12.10;99.90;;;;;;5094677;28;20051;-61
2022/09/18 00:24:00;;;;;;;11.13;2.85;;;12.10;99.90;;;;;;5077150;28;20494;-60
2022/09/18 00:26:27;;;;;;;23.30;3.70;;;12.10;99.90;;;;;;5077644;28;20438;-61
2022/09/18 00:28:54;;;;;;;9.15;1.77;;;12.10;99.90;;;;;;5076012;28;20047;-61
2022/09/18 00:31:28;;;;;;;9.23;2.25;;;12.00;99.90;;;;;;5095387;28;20051;-61
2022/09/18 00:33:55;;;;;;;10.55;1.98;;;11.90;99.90;;;;;;5077146;28;20105;-61
2022/09/18 00:36:22;;;;;;;10.98;1.73;;;11.80;99.90;;;;;;5094486;28;20032;-61
2022/09/18 00:38:48;;;;;;;9.60;2.00;;;11.70;99.90;;;;;;5076799;28;20036;-61
2022/09/18 00:41:23;;;;;;;7.07;1.80;;;11.70;99.90;;;;;;5095363;28;20040;-61
2022/09/18 00:44:14;;;;;;;9.65;2.00;;;11.70;99.90;;;;;;5076641;28;20097;-61
2022/09/18 00:46:43;;;;;;;8.13;1.73;;;11.70;99.90;;;;;;5095033;28;20043;-60
2022/09/18 00:49:13;;;;;;;9.23;2.17;;;11.70;99.90;;;;;;5093835;28;20040;-60
2022/09/18 00:51:39;;;;;;;10.00;2.70;;;11.70;99.90;;;;;;5095011;28;20031;-61
2022/09/18 00:54:17;;;;;;;11.60;2.55;;;11.80;99.90;;;;;;5094396;28;20587;-61
2022/09/18 00:56:44;;;;;;;12.85;2.70;;;11.80;99.90;;;;;;5076212;28;20076;-61
2022/09/18 00:59:12;;;;;;;11.38;2.35;;;11.80;99.90;;;;;;5095093;28;20119;-61
2022/09/18 01:01:38;;;;;;;13.18;3.35;;;11.90;99.90;;;;;;5094859;28;20506;-60
2022/09/18 01:04:12;;;;;;;10.98;2.90;;;11.90;99.90;;;;;;5075591;28;20142;-60
2022/09/18 01:06:56;;;;;;;14.05;2.45;;;11.90;99.90;;;;;;5076709;28;20513;-60
2022/09/18 01:09:44;;;;;;;6.75;1.65;;;11.90;99.90;;;;;;5094863;28;20083;-60
2022/09/18 01:12:26;;;;;;;8.07;2.00;;;11.80;99.90;;;;;;5094753;28;20043;-61
2022/09/18 01:15:00;;;;;;;10.70;2.25;;;11.80;99.90;;;;;;5093922;28;20485;-60
2022/09/18 01:17:37;;;;;;;9.25;2.08;;;11.70;99.90;;;;;;5094123;28;20040;-61
2022/09/18 01:20:24;;;;;;;11.35;2.20;;;11.70;99.90;;;;;;5075933;28;20040;-60
2022/09/18 01:23:03;;;;;;;11.95;2.50;;;11.70;99.90;;;;;;5093832;28;20050;-61
2022/09/18 01:26:03;;;;;;;12.23;2.65;;;11.70;99.90;;;;;;5075113;28;20127;-61
2022/09/18 01:28:57;;;;;;;16.67;3.25;;;11.70;99.90;;;;;;5094394;28;20044;-60
2022/09/18 01:31:30;;;;;;;8.50;2.08;;;11.80;99.90;;;;;;5075477;28;20036;-61
2022/09/18 01:34:24;;;;;;;7.38;2.13;;;11.80;99.90;;;;;;5093577;28;20044;-61
2022/09/18 01:36:57;;;;;;;7.03;2.28;;;11.90;99.90;;;;;;5075670;28;20055;-61
2022/09/18 01:39:36;;;;;;;7.45;1.95;;;12.00;99.90;;;;;;5075428;28;20044;-60
2022/09/18 01:42:04;;;;;;;11.25;2.70;;;12.10;99.90;;;;;;5075481;28;20064;-61
2022/09/18 01:44:32;;;;;;;9.75;1.95;;;12.10;99.90;;;;;;5094275;28;20048;-61
2022/09/18 01:47:01;;;;;;;7.32;2.20;;;12.20;99.90;;;;;;5092845;28;20050;-61
2022/09/18 01:49:35;;;;;;;8.10;2.55;;;12.20;99.90;;;;;;5075780;28;20051;-61
2022/09/18 01:52:04;;;;;;;8.35;2.22;;;12.30;99.90;;;;;;5058153;28;20385;-61
2022/09/18 01:54:34;;;;;;;8.65;2.55;;;12.30;99.90;;;;;;5093760;28;20105;-61
2022/09/18 01:57:25;;;;;;;8.65;1.80;;;12.30;99.90;;;;;;5093534;28;20040;-61
2022/09/18 02:00:04;;;;;;;8.93;1.90;;;12.30;99.90;;;;;;5091689;28;20128;-61
2022/09/18 02:03:10;;;;;;;9.25;1.80;;;12.20;99.90;;;;;;5093800;28;20106;-61
2022/09/18 02:05:43;;;;;;;12.23;2.20;;;12.30;99.90;;;;;;5093963;28;20055;-61
2022/09/18 02:08:32;;;;;;;7.38;2.08;;;12.20;99.90;;;;;;5075282;28;20047;-61
2022/09/18 02:11:03;;;;;;;14.77;2.17;;;12.20;99.90;;;;;;5075303;28;20044;-61
2022/09/18 02:13:37;;;;;;;10.10;1.80;;;12.10;99.90;;;;;;5074551;28;20040;-61
2022/09/18 02:16:10;;;;;;;10.85;2.20;;;12.10;99.90;;;;;;5093213;28;20040;-61
2022/09/18 02:18:44;;;;;;;9.23;2.05;;;12.10;99.90;;;;;;5075251;28;20512;-61
2022/09/18 02:21:15;;;;;;;8.07;1.70;;;12.10;99.90;;;;;;5074419;28;20054;-59
2022/09/18 02:23:42;;;;;;;7.30;1.50;;;12.10;99.90;;;;;;5093283;28;20274;-60
2022/09/18 02:26:11;;;;;;;10.07;2.53;;;12.10;99.90;;;;;;5092853;28;20040;-60
2022/09/18 02:28:38;;;;;;;9.45;1.60;;;12.10;99.90;;;;;;5092623;28;20039;-60
2022/09/18 02:31:04;;;;;;;10.98;1.52;;;12.10;99.90;;;;;;5092588;28;20679;-60
2022/09/18 02:33:32;;;;;;;9.75;1.95;;;12.10;99.90;;;;;;5093017;28;20127;-60
2022/09/18 02:36:30;;;;;;;12.38;2.58;;;12.00;99.90;;;;;;5091674;28;20032;-60
2022/09/18 02:39:07;;;;;;;8.73;1.50;;;11.90;99.90;;;;;;5091783;28;20043;-60
2022/09/18 02:41:53;;;;;;;8.35;1.80;;;11.70;99.90;;;;;;5074333;28;20440;-60
2022/09/18 02:44:52;;;;;;;7.72;1.75;;;11.50;99.90;;;;;;5093060;28;20165;-60
2022/09/18 02:47:20;;;;;;;6.30;1.70;;;11.40;99.90;;;;;;5074711;28;20055;-60
2022/09/18 02:50:00;;;;;;;7.78;1.70;;;11.30;99.90;;;;;;5091618;28;20044;-60
2022/09/18 02:52:35;;;;;;;5.55;1.20;;;11.20;99.90;;;;;;5074810;28;20527;-60
2022/09/18 02:55:10;;;;;;;5.70;1.08;;;11.20;99.90;;;;;;5073331;28;20075;-60
2022/09/18 02:57:48;;;;;;;9.60;1.15;;;11.10;99.90;;;;;;5074670;28;20047;-60
2022/09/18 03:00:17;;;;;;;4.25;0.95;;;11.10;99.90;;;;;;5092926;28;20044;-60
2022/09/18 03:02:44;;;;;;;7.65;1.85;;;11.10;99.90;;;;;;5073526;28;20381;-60
2022/09/18 03:05:13;;;;;;;8.80;1.33;;;11.00;99.90;;;;;;5092565;28;20115;-60
2022/09/18 03:07:38;;;;;;;6.85;1.35;;;11.00;99.90;;;;;;5092632;28;20040;-60
2022/09/18 03:10:05;;;;;;;5.72;1.25;;;10.90;99.90;;;;;;5091428;28;20491;-60
2022/09/18 03:12:31;;;;;;;3.85;1.10;;;10.90;99.90;;;;;;5058089;28;20426;-60
2022/09/18 03:14:56;;;;;;;3.45;0.93;;;10.90;99.90;;;;;;5057102;28;20119;-60
2022/09/18 03:17:22;;;;;;;3.97;1.17;;;10.80;99.90;;;;;;5073576;28;20142;-60
2022/09/18 03:19:48;;;;;;;7.43;1.52;;;10.80;99.90;;;;;;5091888;28;20028;-60
2022/09/18 03:22:14;;;;;;;8.68;1.33;;;10.80;99.90;;;;;;5074290;28;20484;-60
2022/09/18 03:24:40;;;;;;;7.13;1.60;;;10.80;99.90;;;;;;5091665;28;20036;-60
2022/09/18 03:27:06;;;;;;;6.55;1.90;;;10.80;99.90;;;;;;5073867;28;20044;-60
2022/09/18 03:29:32;;;;;;;7.13;1.38;;;10.70;99.90;;;;;;5057427;28;20097;-60
2022/09/18 03:31:57;;;;;;;11.38;1.38;;;10.70;99.90;;;;;;5072829;28;20040;-60
2022/09/18 03:34:23;;;;;;;7.07;1.58;;;10.80;99.90;;;;;;5074226;28;20043;-60
2022/09/18 03:36:49;;;;;;;4.22;1.13;;;10.80;99.90;;;;;;5073874;28;20109;-60
2022/09/18 03:39:16;;;;;;;6.45;1.52;;;10.80;99.90;;;;;;5091556;28;20452;-60
2022/09/18 03:41:41;;;;;;;8.40;1.60;;;10.70;99.90;;;;;;5092344;28;20093;-60
2022/09/18 03:44:07;;;;;;;8.88;2.00;;;10.70;99.90;;;;;;5073385;28;20036;-60
2022/09/18 03:46:32;;;;;;;9.18;1.63;;;10.70;99.90;;;;;;5073637;28;20093;-60
2022/09/18 03:48:58;;;;;;;13.00;2.55;;;10.70;99.90;;;;;;5074889;28;20047;-60
2022/09/18 03:51:24;;;;;;;7.47;1.38;;;10.80;99.90;;;;;;5077385;28;20035;-60
2022/09/18 03:53:50;;;;;;;4.95;1.23;;;10.80;99.90;;;;;;5077415;28;20134;-60
2022/09/18 03:56:16;;;;;;;5.57;1.17;;;10.80;99.90;;;;;;5078154;28;20036;-60
2022/09/18 03:58:42;;;;;;;7.38;1.50;;;10.70;99.90;;;;;;5095285;28;20043;-60
2022/09/18 04:01:08;;;;;;;7.72;1.60;;;10.80;99.90;;;;;;5095574;28;20036;-60
2022/09/18 04:03:33;;;;;;;7.13;1.77;;;10.80;99.90;;;;;;5078011;28;20507;-61
2022/09/18 04:06:00;;;;;;;8.15;1.50;;;10.90;99.90;;;;;;5076443;28;20121;-60
2022/09/18 04:08:26;;;;;;;8.80;1.60;;;11.00;99.90;;;;;;5096145;28;20049;-60
2022/09/18 04:10:52;;;;;;;6.88;1.88;;;11.10;99.90;;;;;;5077412;28;20047;-60
2022/09/18 04:13:18;;;;;;;8.23;1.75;;;11.20;99.90;;;;;;5077057;28;20424;-60
2022/09/18 04:15:46;;;;;;;9.10;1.42;;;11.30;99.90;;;;;;5077734;28;20040;-60
2022/09/18 04:18:12;;;;;;;9.02;1.42;;;11.30;99.90;;;;;;5077880;28;20039;-60
2022/09/18 04:20:38;;;;;;;9.48;1.30;;;11.40;99.90;;;;;;5076769;28;20040;-60
2022/09/18 04:23:05;;;;;;;6.15;1.25;;;11.40;99.90;;;;;;5095088;28;20590;-60
2022/09/18 04:25:31;;;;;;;9.60;1.75;;;11.40;99.90;;;;;;5077507;28;20089;-60
2022/09/18 04:27:57;;;;;;;8.40;2.03;;;11.30;99.90;;;;;;5094215;28;20500;-60
2022/09/18 04:30:24;;;;;;;7.15;1.30;;;11.40;99.90;;;;;;5077663;28;20044;-60
2022/09/18 04:32:49;;;;;;;15.00;2.50;;;11.30;99.90;;;;;;5076866;28;20434;-60
2022/09/18 04:35:15;;;;;;;12.65;2.47;;;11.40;99.90;;;;;;5076379;28;20040;-59
2022/09/18 04:37:42;;;;;;;8.07;2.22;;;11.40;99.90;;;;;;5077425;28;20115;-59
2022/09/18 04:40:09;;;;;;;10.77;2.15;;;11.30;99.90;;;;;;5095057;28;20036;-60
2022/09/18 04:42:35;;;;;;;10.20;2.10;;;11.40;99.90;;;;;;5076490;28;20058;-60
2022/09/18 04:45:01;;;;;;;5.60;1.65;;;11.40;99.90;;;;;;5076656;28;20484;-59
2022/09/18 04:47:27;;;;;;;9.52;2.38;;;11.40;99.90;;;;;;5094732;28;20044;-60
2022/09/18 04:49:52;;;;;;;7.32;2.67;;;11.30;99.90;;;;;;5094828;28;20040;-60
2022/09/18 04:52:18;;;;;;;6.57;1.85;;;11.30;99.90;;;;;;5095304;28;20100;-60
2022/09/18 04:54:44;;;;;;;4.63;1.65;;;11.30;99.90;;;;;;5094326;28;20047;-60
2022/09/18 04:57:10;;;;;;;8.93;1.92;;;11.30;99.90;;;;;;5094932;28;20500;-60
2022/09/18 04:59:35;;;;;;;10.48;1.73;;;11.20;99.90;;;;;;5094986;28;20092;-60
2022/09/18 05:02:01;;;;;;;8.07;2.00;;;11.20;99.90;;;;;;5074811;28;20081;-60
2022/09/18 05:04:27;;;;;;;9.15;2.03;;;11.20;99.90;;;;;;5076892;28;20044;-60
2022/09/18 05:06:52;;;;;;;9.98;2.10;;;11.20;99.90;;;;;;5094469;28;20048;-60
2022/09/18 05:09:18;;;;;;;7.80;1.58;;;11.20;99.90;;;;;;5094189;28;20048;-60
2022/09/18 05:11:43;;;;;;;7.93;1.95;;;11.20;99.90;;;;;;5076601;28;20046;-60
2022/09/18 05:14:09;;;;;;;10.77;3.88;;;11.20;99.90;;;;;;5076136;28;20050;-60
2022/09/18 05:16:35;;;;;;;10.27;2.85;;;11.10;99.90;;;;;;5075678;28;20111;-59
2022/09/18 05:19:00;;;;;;;15.15;2.45;;;11.20;99.90;;;;;;5076069;28;20039;-59
2022/09/18 05:21:26;;;;;;;6.60;2.08;;;11.20;99.90;;;;;;5076287;28;20044;-59
2022/09/18 05:23:52;;;;;;;10.20;2.05;;;11.20;99.90;;;;;;5075247;28;20438;-60
2022/09/18 05:26:17;;;;;;;13.40;2.63;;;11.20;99.90;;;;;;5076287;28;20069;-60
2022/09/18 05:28:43;;;;;;;8.70;1.75;;;11.20;99.90;;;;;;5076294;28;20066;-60
2022/09/18 05:31:09;;;;;;;11.82;1.77;;;11.10;99.90;;;;;;5074957;28;20044;-60
2022/09/18 05:33:35;;;;;;;5.70;1.30;;;11.10;99.90;;;;;;5094552;28;20048;-60
2022/09/18 05:36:03;;;;;;;7.57;1.52;;;11.10;99.90;;;;;;5075515;28;20050;-60
2022/09/18 05:38:28;;;;;;;7.53;1.73;;;11.00;99.90;;;;;;5093500;28;20055;-60
2022/09/18 05:41:01;;;;;;;5.75;1.58;;;11.00;99.90;;;;;;5075335;28;20481;-60
2022/09/18 05:43:27;;;;;;;6.65;2.05;;;10.90;99.90;;;;;;5094186;28;20040;-60
2022/09/18 05:45:53;;;;;;;6.40;1.80;;;10.90;99.90;;;;;;5092633;28;20084;-60
2022/09/18 05:48:19;;;;;;;7.47;1.92;;;10.80;99.90;;;;;;5094142;28;20489;-61
2022/09/18 05:50:55;;;;;;;7.75;1.80;;;10.80;99.90;;;;;;5058401;28;20044;-61
2022/09/18 05:53:21;;;;;;;11.00;3.42;;;10.80;99.90;;;;;;5094003;28;20036;-60
2022/09/18 05:55:47;;;;;;;9.70;3.80;;;10.70;99.90;;;;;;5075175;28;20048;-61
2022/09/18 05:58:15;;;;;;;7.57;1.95;;;10.70;99.90;;;;;;5074964;28;20113;-60
2022/09/18 06:00:43;;;;;;;9.00;2.50;;;10.70;99.90;;;;;;5075615;28;20043;-61
2022/09/18 06:03:12;;;;;;;7.80;1.88;;;10.70;99.90;;;;;;5093488;28;20061;-60
2022/09/18 06:05:38;;;;;;;10.65;4.38;;;10.70;99.90;;;;;;5093079;28;20487;-61
2022/09/18 06:08:06;;;;;;;13.00;5.45;;;10.70;99.90;;;;;;5093187;28;20051;-61
2022/09/18 06:10:33;;;;;;;10.18;3.05;;;10.70;99.90;;;;;;5093463;28;20040;-60
2022/09/18 06:13:03;;;;;;;17.85;1.95;;;10.70;99.90;;;;;;5072969;28;20561;-60
2022/09/18 06:15:28;;;;;;;7.28;1.42;;;10.80;99.90;;;;;;5093631;28;20047;-61
2022/09/18 06:17:54;;;;;;;8.13;1.73;;;10.80;99.90;;;;;;5074899;28;20403;-61
2022/09/18 06:20:20;;;;;;;10.85;2.25;;;10.90;99.90;;;;;;5092731;28;20050;-61
2022/09/18 06:22:46;;;;;;;11.23;1.60;;;10.90;99.90;;;;;;5074651;28;20539;-61
2022/09/18 06:25:12;;;;;;;13.57;2.08;;;11.00;99.90;;;;;;5093034;28;20076;-61
2022/09/18 06:27:37;;;;;;;10.05;1.70;;;11.00;99.90;;;;;;5074367;28;20052;-61
2022/09/18 06:30:04;;;;;;;6.03;2.15;;;11.00;99.90;;;;;;5092911;28;20036;-61
2022/09/18 06:32:30;;;;;;;8.68;3.53;;;11.00;99.90;;;;;;5093602;28;20040;-61
2022/09/18 06:34:56;;;;;;;8.00;3.55;;;11.00;99.90;;;;;;5073657;28;20454;-61
2022/09/18 06:37:21;;;;;;;8.02;2.72;;;11.00;99.90;;;;;;5093201;28;20032;-61
2022/09/18 06:39:47;;;;;;;6.93;2.17;;;11.00;99.90;;;;;;5074115;28;20507;-61
2022/09/18 06:42:14;;;;;;;5.97;1.63;;;11.00;99.90;;;;;;5074206;28;20036;-61
2022/09/18 06:44:40;;;;;;;5.93;1.52;;;11.00;99.90;;;;;;5067096;28;20126;-61
2022/09/18 06:47:06;;;;;;;8.23;1.40;;;11.00;99.90;;;;;;5068574;28;20508;-61
2022/09/18 06:49:32;;;;;;;4.93;1.50;;;11.00;99.90;;;;;;5051901;28;20065;-61
2022/09/18 06:51:58;;;;;;;7.63;2.08;;;11.10;99.90;;;;;;5078802;28;20118;-61
2022/09/18 06:54:23;;;;;;;4.80;1.58;;;11.00;99.90;;;;;;5086087;28;20032;-61
2022/09/18 06:56:49;;;;;;;9.65;1.67;;;11.00;99.90;;;;;;5055238;28;20054;-61
2022/09/18 06:59:15;;;;;;;7.57;1.85;;;11.10;99.90;;;;;;5090875;28;20044;-61
2022/09/18 07:01:40;;;;;;;6.03;1.48;;;11.10;99.90;;;;;;5088623;28;20047;-61
2022/09/18 07:04:06;;;;;;;7.15;2.55;;;11.10;99.90;;;;;;5068286;28;20052;-61
2022/09/18 07:06:32;;;;;;;5.53;1.65;;;11.00;99.90;;;;;;5083057;28;20774;-61
2022/09/18 07:08:57;;;;;;;6.53;1.77;;;11.00;99.90;;;;;;5074856;28;20044;-61
2022/09/18 07:11:23;;;;;;;5.85;1.85;;;11.00;99.90;;;;;;5072050;28;20032;-61
2022/09/18 07:13:50;;;;;;;7.65;1.60;;;11.00;99.90;;;;;;5089601;28;20040;-61
2022/09/18 07:16:16;;;;;;;8.27;1.88;;;11.00;99.90;;;;;;5084760;28;20047;-61
2022/09/18 07:18:42;;;;;;;8.65;2.65;;;11.10;99.90;;;;;;5062745;28;20040;-61
2022/09/18 07:21:08;;;;;;;14.30;3.88;;;11.10;99.90;;;;;;5088741;28;20119;-60
2022/09/18 07:23:35;;;;;;;8.25;2.50;;;11.10;99.90;;;;;;5054064;28;20118;-60
2022/09/18 07:26:02;;;;;;;8.23;2.10;;;11.10;99.90;;;;;;5089599;28;20504;-60
2022/09/18 07:28:28;;;;;;;7.50;2.00;;;11.20;99.90;;;;;;5090249;28;20152;-60
2022/09/18 07:30:54;;;;;;;6.88;2.15;;;11.20;99.90;;;;;;5070400;28;20126;-60
2022/09/18 07:33:20;;;;;;;6.15;1.60;;;11.20;99.90;;;;;;5087148;28;20039;-60
2022/09/18 07:35:46;;;;;;;10.32;2.63;;;11.20;99.90;;;;;;5077089;28;20040;-60
2022/09/18 07:38:12;;;;;;;7.65;2.17;;;11.20;99.90;;;;;;5069822;28;20058;-60
2022/09/18 07:40:41;;;;;;;12.55;2.47;;;11.20;99.90;;;;;;5088091;28;20170;-61
2022/09/18 07:43:08;;;;;;;7.28;2.10;;;11.20;99.90;;;;;;5082308;28;20053;-61
2022/09/18 07:45:35;;;;;;;8.57;2.13;;;11.20;99.90;;;;;;5050641;28;20505;-61
2022/09/18 07:48:02;;;;;;;10.13;2.95;;;11.20;99.90;;;;;;5079789;28;20102;-61
2022/09/18 07:50:28;;;;;;;11.48;2.15;;;11.20;99.90;;;;;;5088759;28;20055;-61
2022/09/18 07:52:56;;;;;;;9.93;2.67;;;11.20;99.90;;;;;;5075410;28;20040;-61
2022/09/18 07:55:24;;;;;;;10.68;3.10;;;11.20;99.90;;;;;;5051065;28;20461;-61
2022/09/18 07:57:54;;;;;;;9.02;2.58;;;11.20;99.90;;;;;;5071831;28;20081;-61
2022/09/18 08:00:20;;;;;;;6.75;1.90;;;11.30;99.90;;;;;;5071487;28;20485;-61
2022/09/18 08:02:46;;;;;;;7.40;2.17;;;11.30;99.90;;;;;;5067591;28;20041;-61
2022/09/18 08:05:12;;;;;;;8.05;2.13;;;11.30;99.90;;;;;;5070293;28;20127;-61
2022/09/18 08:07:37;;;;;;;7.40;1.52;;;11.40;99.90;;;;;;5070804;28;20401;-61
2022/09/18 08:10:05;;;;;;;7.05;1.75;;;11.40;99.90;;;;;;5067737;28;20071;-61
2022/09/18 08:12:31;;;;;;;4.88;1.50;;;11.40;99.90;;;;;;5087600;28;20040;-61
2022/09/18 08:14:57;;;;;;;7.07;1.88;;;11.40;99.90;;;;;;5088721;28;20089;-61
2022/09/18 08:17:24;;;;;;;10.68;1.92;;;11.40;99.90;;;;;;5087710;28;20388;-61
2022/09/18 08:19:50;;;;;;;7.75;1.33;;;11.50;99.90;;;;;;5060800;28;20048;-60
2022/09/18 08:22:15;;;;;;;8.55;1.80;;;11.50;99.90;;;;;;5071296;28;20058;-60
2022/09/18 08:24:44;;;;;;;7.45;1.38;;;11.50;99.90;;;;;;5094668;28;20051;-61
2022/09/18 08:27:11;;;;;;;7.40;2.22;;;11.40;99.90;;;;;;5090442;28;20097;-61
2022/09/18 08:29:37;;;;;;;9.55;2.05;;;11.40;99.90;;;;;;5091034;28;20048;-61
2022/09/18 08:32:34;;;;;;;8.07;1.75;;;11.40;99.90;;;;;;5087646;28;20446;-61
2022/09/18 08:35:01;;;;;;;7.80;1.77;;;11.30;99.90;;;;;;5040047;28;20045;-61
2022/09/18 08:37:28;;;;;;;7.68;1.83;;;11.30;99.90;;;;;;5088020;28;20491;-61
2022/09/18 08:39:55;;;;;;;10.57;2.08;;;11.20;99.90;;;;;;5082412;28;20039;-61
2022/09/18 08:42:58;;;;;;;11.32;2.78;;;11.20;99.90;;;;;;5112510;28;20040;-61
2022/09/18 08:45:51;;;;;;;14.43;2.78;;;11.20;99.90;;;;;;5094500;28;20044;-61
2022/09/18 08:48:33;;;;;;;7.15;1.45;;;11.20;99.90;;;;;;5019552;28;20678;-61
2022/09/18 08:51:03;;;;;;;8.02;1.70;;;11.20;99.90;;;;;;5074040;28;20044;-60
2022/09/18 08:53:38;;;;;;;7.47;1.70;;;11.20;99.90;;;;;;5062790;28;20130;-60
2022/09/18 08:56:11;;;;;;;7.15;1.92;;;11.10;99.90;;;;;;5091509;28;20054;-60
2022/09/18 08:58:45;;;;;;;7.43;1.65;;;11.10;99.90;;;;;;5074459;28;20048;-61
2022/09/18 09:01:16;;;;;;;4.45;1.15;;;11.10;99.90;;;;;;5084286;28;20040;-60
2022/09/18 09:03:51;;;;;;;4.90;1.50;;;11.00;99.90;;;;;;5102341;28;20107;-61
2022/09/18 09:06:55;;;;;;;7.05;1.00;;;11.00;99.90;;;;;;5054866;28;20174;-60
2022/09/18 09:09:39;;;;;;;5.07;1.33;;;10.90;99.90;;;;;;5090178;28;20110;-60
2022/09/18 09:12:46;;;;;;;5.53;1.50;;;10.90;99.90;;;;;;5094289;28;20075;-61
2022/09/18 09:15:38;;;;;;;11.07;2.13;;;10.90;99.90;;;;;;5071279;28;20496;-61
2022/09/18 09:18:18;;;;;;;10.00;2.40;;;10.80;99.90;;;;;;5073385;28;20461;-61
2022/09/18 09:20:53;;;;;;;6.28;1.60;;;10.80;99.90;;;;;;5091300;28;20086;-61
2022/09/18 09:23:50;;;;;;;8.38;1.83;;;10.80;99.90;;;;;;5091345;28;20075;-61
2022/09/18 09:26:20;;;;;;;8.23;2.15;;;10.80;99.90;;;;;;5069873;28;20055;-61
2022/09/18 09:29:17;;;;;;;14.90;3.22;;;10.90;99.90;;;;;;5071395;28;20048;-60
2022/09/18 09:31:47;;;;;;;9.32;2.78;;;10.90;99.90;;;;;;5063193;28;20119;-61
2022/09/18 09:34:35;;;;;;;12.25;2.92;;;11.00;99.90;;;;;;5093747;28;20043;-61
2022/09/18 09:37:05;;;;;;;12.73;2.65;;;11.00;99.90;;;;;;5072182;28;20054;-60
2022/09/18 09:39:49;;;;;;;13.93;2.58;;;11.10;99.90;;;;;;5086606;28;20534;-60
2022/09/18 09:42:28;;;;;;;12.40;2.80;;;11.20;99.90;;;;;;5084768;28;20089;-60
2022/09/18 09:45:00;;;;;;;12.15;2.60;;;11.20;99.90;;;;;;5089445;28;20040;-60
2022/09/18 09:47:44;;;;;;;8.60;3.22;;;11.30;99.90;;;;;;5087305;28;20058;-61
2022/09/18 09:50:37;;;;;;;7.50;2.70;;;11.30;99.90;;;;;;5090648;28;20079;-61
2022/09/18 09:53:09;;;;;;;11.10;2.70;;;11.40;99.90;;;;;;5079877;28;20047;-61
2022/09/18 09:55:54;;;;;;;13.20;3.00;;;11.40;99.90;;;;;;5071307;28;20056;-61
2022/09/18 09:58:54;;;;;;;11.40;2.85;;;11.40;99.90;;;;;;5036276;28;20043;-61
2022/09/18 10:02:09;;;;;;;15.68;4.28;;;11.40;99.90;;;;;;5077192;28;20250;-61
2022/09/18 10:04:54;;;;;;;11.80;3.35;;;11.50;99.90;;;;;;4988918;28;20554;-61
2022/09/18 10:07:34;;;;;;;15.27;4.68;;;11.50;99.90;;;;;;5091087;28;20445;-61
2022/09/18 10:10:22;;;;;;;13.95;3.63;;;11.60;99.90;;;;;;5052401;28;20047;-61
2022/09/18 10:12:56;;;;;;;15.13;3.28;;;11.60;99.90;;;;;;5058521;28;20089;-61
2022/09/18 10:15:36;;;;;;;12.00;2.97;;;11.70;99.90;;;;;;5038449;28;20044;-61
2022/09/18 10:18:05;;;;;;;8.77;2.38;;;11.80;99.90;;;;;;5090302;28;20050;-60
2022/09/18 10:20:32;;;;;;;12.30;3.10;;;11.80;99.90;;;;;;5090797;28;20127;-60
2022/09/18 10:23:04;;;;;;;9.90;2.08;;;11.90;99.90;;;;;;5072068;28;20048;-60
2022/09/18 10:25:38;;;;;;;6.38;2.38;;;11.90;99.90;;;;;;5090544;28;20369;-60
2022/09/18 10:28:04;;;;;;;10.97;4.63;;;12.00;99.90;;;;;;5070141;28;20039;-61
2022/09/18 10:30:31;;;;;;;12.82;4.03;;;12.10;99.90;;;;;;5069311;28;20627;-61
2022/09/18 10:32:58;;;;;;;9.63;3.75;;;12.10;99.90;;;;;;5070272;28;20040;-61
2022/09/18 10:35:34;;;;;;;10.48;2.72;;;12.20;99.90;;;;;;5071073;28;20123;-61
2022/09/18 10:38:00;;;;;;;9.15;3.10;;;12.20;99.90;;;;;;5093866;28;20040;-61
2022/09/18 10:40:37;;;;;;;13.52;2.55;;;12.30;99.90;;;;;;5082220;28;20694;-61
2022/09/18 10:43:03;;;;;;;7.35;2.20;;;12.30;99.90;;;;;;5054196;28;20040;-61
2022/09/18 10:45:39;;;;;;;10.23;2.35;;;12.40;99.90;;;;;;5072495;28;20483;-61
2022/09/18 10:48:21;;;;;;;7.57;2.33;;;12.50;99.90;;;;;;5070756;28;20052;-61
2022/09/18 10:51:01;;;;;;;19.83;2.30;;;12.60;99.90;;;;;;5071849;28;20552;-61
2022/09/18 10:53:37;;;;;;;6.22;1.50;;;12.70;99.90;;;;;;5067206;28;20516;-61
2022/09/18 10:56:16;;;;;;;8.43;1.95;;;12.70;99.90;;;;;;5083408;28;20483;-60
2022/09/18 10:58:42;;;;;;;11.40;1.73;;;12.70;99.90;;;;;;5072175;28;20054;-60
2022/09/18 11:01:09;;;;;;;8.43;2.03;;;12.70;99.90;;;;;;5066137;28;20408;-60
2022/09/18 11:03:36;;;;;;;7.32;2.00;;;12.80;99.90;;;;;;5090333;28;20055;-60
2022/09/18 11:06:06;;;;;;;6.53;1.73;;;12.90;99.90;;;;;;5089625;28;20480;-60
2022/09/18 11:08:42;;;;;;;6.35;1.90;;;13.00;99.90;;;;;;5071087;28;20405;-60
2022/09/18 11:11:12;;;;;;;5.65;1.80;;;13.00;99.90;;;;;;5086971;28;20520;-60
2022/09/18 11:13:51;;;;;;;8.90;1.90;;;13.10;99.90;;;;;;5082797;28;20043;-60
2022/09/18 11:16:41;;;;;;;9.25;2.45;;;13.20;99.90;;;;;;5071083;28;20032;-60
2022/09/18 11:19:15;;;;;;;5.93;1.58;;;13.20;99.90;;;;;;5088831;28;20040;-60
2022/09/18 11:21:44;;;;;;;14.63;3.43;;;13.30;99.90;;;;;;5071582;28;20829;-60
2022/09/18 11:24:19;;;;;;;9.90;2.05;;;13.30;99.90;;;;;;5071695;28;20294;-60
2022/09/18 11:26:50;;;;;;;8.40;1.70;;;13.40;99.90;;;;;;5067805;28;20071;-61
2022/09/18 11:29:24;;;;;;;5.68;1.25;;;13.40;99.90;;;;;;5084172;28;20052;-61
2022/09/18 11:31:57;;;;;;;8.80;2.28;;;13.50;99.90;;;;;;5086413;28;20044;-61
2022/09/18 11:34:27;;;;;;;7.60;2.13;;;13.50;99.90;;;;;;5074229;28;20036;-61
2022/09/18 11:37:05;;;;;;;7.03;1.83;;;13.50;99.90;;;;;;5039478;28;20040;-61
2022/09/18 11:39:41;;;;;;;4.28;1.25;;;13.60;99.90;;;;;;5046319;28;20114;-61
2022/09/18 11:42:15;;;;;;;11.00;1.75;;;13.60;99.90;;;;;;5069980;28;20044;-62
2022/09/18 11:44:41;;;;;;;13.68;2.40;;;13.60;99.90;;;;;;5074918;28;20048;-60
2022/09/18 11:47:39;;;;;;;6.82;1.50;;;13.60;99.90;;;;;;5065153;28;20056;-60
2022/09/18 11:50:24;;;;;;;6.47;1.50;;;13.60;99.90;;;;;;5062500;28;20374;-61
2022/09/18 11:52:55;;;;;;;5.43;1.80;;;13.60;99.90;;;;;;5071889;28;20053;-61
2022/09/18 11:55:28;;;;;;;6.22;1.60;;;13.60;99.90;;;;;;5053923;28;20123;-61
2022/09/18 11:58:12;;;;;;;8.20;2.08;;;13.60;99.90;;;;;;5069410;28;20094;-60
2022/09/18 12:00:51;;;;;;;8.82;2.33;;;13.60;99.90;;;;;;5071913;28;20040;-61
2022/09/18 12:03:30;;;;;;;10.23;1.63;;;13.70;99.90;;;;;;5054017;28;20045;-61
2022/09/18 12:06:16;;;;;;;10.82;2.35;;;13.60;99.90;;;;;;5070985;28;20040;-60
2022/09/18 12:09:02;;;;;;;6.50;1.70;;;13.60;99.90;;;;;;5071901;28;20045;-61
2022/09/18 12:11:41;;;;;;;9.95;2.03;;;13.60;99.90;;;;;;5062671;28;20131;-61
2022/09/18 12:14:35;;;;;;;10.60;2.30;;;13.60;99.90;;;;;;5075137;28;20120;-61
2022/09/18 12:17:14;;;;;;;9.40;1.67;;;13.60;99.90;;;;;;5057029;28;20507;-61
2022/09/18 12:19:49;;;;;;;8.10;1.83;;;13.60;99.90;;;;;;5075034;28;20080;-61
2022/09/18 12:23:00;;;;;;;6.63;1.75;;;13.50;99.90;;;;;;5057479;28;20500;-60
2022/09/18 12:26:02;;;;;;;6.88;1.63;;;13.20;99.90;;;;;;5070262;28;20059;-60
2022/09/18 12:28:31;;;;;;;5.18;1.25;;;13.00;99.90;;;;;;5057570;28;20082;-60
2022/09/18 12:31:12;;;;;;;8.45;1.80;;;12.80;99.90;;;;;;5073537;28;20044;-60
2022/09/18 12:37:17;;;;;;;6.40;1.70;;;12.70;99.90;;;;;;5074586;28;20076;-60
2022/09/18 12:40:08;;;;;;;4.50;1.20;;;12.70;99.90;;;;;;5074322;28;20076;-60
2022/09/18 12:42:58;;;;;;;8.43;2.00;;;12.70;99.90;;;;;;5074885;28;20087;-60
2022/09/18 12:45:30;;;;;;;4.65;1.17;;;12.70;99.90;;;;;;5075175;28;20040;-60
2022/09/18 12:48:10;;;;;;;10.85;2.40;;;12.80;99.90;;;;;;5072371;28;20074;-60
2022/09/18 12:51:07;;;;;;;8.23;2.75;;;12.80;99.90;;;;;;5073748;28;20040;-60
2022/09/18 12:54:07;;;;;;;7.00;1.50;;;12.90;99.90;;;;;;5073001;28;20097;-60
2022/09/18 12:56:44;;;;;;;8.77;1.40;;;12.90;99.90;;;;;;5074830;28;20048;-60
2022/09/18 12:59:29;;;;;;;8.48;1.85;;;13.00;99.90;;;;;;5073352;28;20047;-60
2022/09/18 13:02:03;;;;;;;8.10;1.90;;;13.10;99.90;;;;;;5072377;28;20039;-60
2022/09/18 13:04:44;;;;;;;9.48;1.75;;;13.20;99.90;;;;;;5075032;28;20044;-61
2022/09/18 13:07:21;;;;;;;9.80;2.03;;;13.30;99.90;;;;;;5072792;28;20159;-61
2022/09/18 13:10:05;;;;;;;8.60;1.50;;;13.40;99.90;;;;;;5074204;28;20428;-61
2022/09/18 13:12:40;;;;;;;6.63;1.70;;;13.50;99.90;;;;;;5057064;28;20049;-61
2022/09/18 13:15:16;;;;;;;11.70;2.30;;;13.50;99.90;;;;;;5073185;28;20070;-61